createdAt,value
2022-08-28T00:01:44.121Z,37.13
2022-08-28T00:04:12.009Z,35.17
2022-08-28T00:07:08.442Z,37.17
2022-08-28T00:09:35.144Z,35.33
2022-08-28T00:12:04.863Z,36.40
2022-08-28T00:14:33.451Z,28.27
2022-08-28T00:17:03.621Z,27.20
2022-08-28T00:19:34.453Z,36.10
2022-08-28T00:22:08.107Z,36.50
2022-08-28T00:24:36.642Z,32.88
2022-08-28T00:27:24.574Z,31.13
2022-08-28T00:30:00.334Z,37.83
2022-08-28T00:32:27.657Z,32.83
2022-08-28T00:34:56.237Z,39.45
2022-08-28T00:37:24.763Z,33.33
2022-08-28T00:39:51.675Z,32.53
2022-08-28T00:42:23.125Z,38.55
2022-08-28T00:44:53.444Z,38.55
2022-08-28T00:47:25.827Z,36.50
2022-08-28T00:49:56.374Z,34.35
2022-08-28T00:52:26.201Z,36.15
2022-08-28T00:55:01.216Z,37.70
2022-08-28T00:57:35.665Z,34.00
2022-08-28T01:00:11.081Z,34.20
2022-08-28T01:02:38.907Z,34.75
2022-08-28T01:05:09.387Z,38.45
2022-08-28T01:07:37.970Z,35.28
2022-08-28T01:10:13.545Z,34.80
2022-08-28T01:12:42.474Z,38.05
2022-08-28T01:15:14.184Z,31.15
2022-08-28T01:17:48.512Z,31.85
2022-08-28T01:20:21.531Z,33.50
2022-08-28T01:23:27.930Z,29.45
2022-08-28T01:25:54.843Z,30.60
2022-08-28T01:28:21.621Z,28.45
2022-08-28T01:30:56.127Z,29.27
2022-08-28T01:33:27.979Z,29.25
2022-08-28T01:35:55.187Z,27.98
2022-08-28T01:38:26.821Z,31.33
2022-08-28T01:40:57.424Z,33.97
2022-08-28T01:43:26.868Z,33.92
2022-08-28T01:46:03.572Z,32.33
2022-08-28T01:48:41.733Z,30.60
2022-08-28T01:51:12.649Z,35.67
2022-08-28T01:53:40.807Z,33.30
2022-08-28T01:56:11.453Z,30.25
2022-08-28T01:58:39.364Z,30.20
2022-08-28T02:01:10.410Z,33.60
2022-08-28T02:03:38.051Z,30.75
2022-08-28T02:06:05.961Z,27.45
2022-08-28T02:08:32.711Z,33.47
2022-08-28T02:11:00.831Z,27.15
2022-08-28T02:13:31.355Z,24.38
2022-08-28T02:15:58.199Z,31.60
2022-08-28T02:27:09.905Z,30.77
2022-08-28T02:29:40.344Z,27.35
2022-08-28T02:32:11.693Z,30.95
2022-08-28T02:34:42.962Z,23.33
2022-08-28T02:37:12.946Z,29.45
2022-08-28T02:39:44.227Z,27.95
2022-08-28T02:42:16.123Z,25.90
2022-08-28T02:44:46.611Z,30.27
2022-08-28T02:47:14.501Z,30.48
2022-08-28T02:49:44.350Z,30.63
2022-08-28T02:52:14.451Z,30.25
2022-08-28T02:54:41.179Z,28.27
2022-08-28T02:57:14.351Z,26.85
2022-08-28T02:59:49.727Z,26.13
2022-08-28T03:02:25.511Z,35.65
2022-08-28T03:04:56.726Z,30.17
2022-08-28T03:07:29.470Z,31.08
2022-08-28T03:09:56.725Z,28.90
2022-08-28T03:12:49.134Z,29.55
2022-08-28T03:15:18.558Z,32.83
2022-08-28T03:17:45.261Z,28.23
2022-08-28T03:20:19.299Z,32.38
2022-08-28T03:23:06.093Z,27.92
2022-08-28T03:25:36.220Z,28.23
2022-08-28T03:28:03.182Z,31.60
2022-08-28T03:30:29.899Z,28.45
2022-08-28T03:33:00.688Z,27.73
2022-08-28T03:35:27.851Z,27.88
2022-08-28T03:37:54.596Z,26.90
2022-08-28T03:40:47.542Z,25.75
2022-08-28T03:43:22.883Z,29.33
2022-08-28T03:45:57.323Z,26.08
2022-08-28T03:48:28.132Z,29.65
2022-08-28T03:50:56.370Z,26.10
2022-08-28T03:53:25.129Z,28.73
2022-08-28T03:55:56.807Z,24.65
2022-08-28T03:58:24.197Z,27.10
2022-08-28T04:00:56.980Z,29.35
2022-08-28T04:03:24.035Z,25.25
2022-08-28T04:05:54.087Z,28.35
2022-08-28T04:08:22.281Z,28.17
2022-08-28T04:10:51.169Z,26.45
2022-08-28T04:13:20.392Z,34.08
2022-08-28T04:16:02.229Z,28.38
2022-08-28T04:18:34.944Z,75.78
2022-08-28T04:21:42.216Z,55.88
2022-08-28T04:24:12.487Z,30.48
2022-08-28T04:26:40.000Z,24.85
2022-08-28T04:29:36.073Z,30.65
2022-08-28T04:32:05.932Z,27.10
2022-08-28T04:34:32.842Z,26.08
2022-08-28T04:36:59.433Z,25.48
2022-08-28T04:39:26.057Z,24.05
2022-08-28T04:41:54.831Z,26.60
2022-08-28T04:44:57.273Z,24.15
2022-08-28T04:47:28.720Z,25.70
2022-08-28T04:49:56.569Z,30.90
2022-08-28T04:52:24.601Z,31.33
2022-08-28T04:54:52.595Z,30.55
2022-08-28T04:57:19.376Z,29.00
2022-08-28T04:59:46.111Z,23.00
2022-08-28T05:02:13.026Z,27.95
2022-08-28T05:04:40.140Z,23.73
2022-08-28T05:07:06.788Z,26.63
2022-08-28T05:09:38.712Z,25.02
2022-08-28T05:12:11.992Z,23.95
2022-08-28T05:14:41.263Z,22.67
2022-08-28T05:17:13.679Z,25.30
2022-08-28T05:22:11.502Z,23.40
2022-08-28T05:24:39.282Z,24.23
2022-08-28T05:27:09.509Z,20.13
2022-08-28T05:29:42.551Z,21.17
2022-08-28T05:32:14.479Z,25.75
2022-08-28T05:34:47.536Z,17.88
2022-08-28T05:37:17.739Z,22.45
2022-08-28T05:39:48.714Z,19.33
2022-08-28T05:42:15.332Z,21.10
2022-08-28T05:44:43.596Z,22.58
2022-08-28T05:47:21.597Z,20.35
2022-08-28T05:49:52.368Z,21.38
2022-08-28T05:52:19.144Z,21.27
2022-08-28T05:54:45.891Z,19.83
2022-08-28T05:57:13.825Z,25.67
2022-08-28T05:59:41.889Z,21.95
2022-08-28T06:02:12.358Z,25.63
2022-08-28T06:04:42.602Z,18.00
2022-08-28T06:07:11.395Z,24.92
2022-08-28T06:09:43.013Z,21.85
2022-08-28T06:12:12.503Z,20.77
2022-08-28T06:14:44.086Z,21.60
2022-08-28T06:17:11.737Z,22.40
2022-08-28T06:19:41.467Z,22.63
2022-08-28T06:22:15.040Z,25.17
2022-08-28T06:24:43.653Z,20.35
2022-08-28T06:27:11.973Z,23.92
2022-08-28T06:29:39.223Z,23.20
2022-08-28T06:32:09.118Z,23.92
2022-08-28T06:34:37.210Z,23.08
2022-08-28T06:37:05.657Z,20.25
2022-08-28T06:39:33.445Z,16.58
2022-08-28T06:42:00.684Z,21.33
2022-08-28T06:44:28.057Z,19.15
2022-08-28T06:46:56.997Z,18.52
2022-08-28T06:49:25.069Z,16.88
2022-08-28T06:51:57.887Z,15.90
2022-08-28T06:54:24.693Z,16.40
2022-08-28T06:56:52.490Z,18.25
2022-08-28T06:59:22.236Z,19.38
2022-08-28T07:01:52.204Z,15.82
2022-08-28T07:04:20.366Z,17.42
2022-08-28T07:06:53.668Z,16.45
2022-08-28T07:09:23.601Z,18.92
2022-08-28T07:11:50.799Z,10.80
2022-08-28T07:14:19.235Z,16.75
2022-08-28T07:16:49.281Z,18.17
2022-08-28T07:19:16.597Z,14.30
2022-08-28T07:21:44.543Z,15.38
2022-08-28T07:32:40.360Z,12.95
2022-08-28T07:35:08.717Z,18.92
2022-08-28T07:37:37.525Z,12.50
2022-08-28T07:40:09.597Z,18.05
2022-08-28T07:42:59.468Z,12.73
2022-08-28T07:45:29.216Z,19.98
2022-08-28T07:47:57.561Z,15.57
2022-08-28T07:50:27.746Z,13.68
2022-08-28T07:52:54.535Z,12.82
2022-08-28T07:55:22.397Z,13.45
2022-08-28T07:57:53.419Z,10.88
2022-08-28T08:00:22.491Z,16.10
2022-08-28T08:02:52.184Z,14.75
2022-08-28T08:05:23.213Z,11.35
2022-08-28T08:07:49.899Z,12.52
2022-08-28T08:10:20.581Z,12.30
2022-08-28T08:12:48.028Z,12.05
2022-08-28T08:15:16.509Z,12.43
2022-08-28T08:17:44.377Z,15.38
2022-08-28T08:20:20.228Z,14.38
2022-08-28T08:22:52.948Z,13.52
2022-08-28T08:25:21.031Z,10.57
2022-08-28T08:27:49.363Z,10.07
2022-08-28T08:30:21.282Z,12.82
2022-08-28T08:32:55.790Z,11.52
2022-08-28T08:35:24.600Z,12.00
2022-08-28T08:37:52.849Z,13.13
2022-08-28T08:40:30.384Z,14.18
2022-08-28T08:42:57.319Z,10.90
2022-08-28T08:45:25.987Z,10.18
2022-08-28T08:47:56.046Z,9.82
2022-08-28T08:50:34.316Z,14.25
2022-08-28T08:56:11.592Z,14.05
2022-08-28T08:58:49.975Z,14.13
2022-08-28T09:01:46.633Z,11.48
2022-08-28T09:04:35.701Z,13.80
2022-08-28T09:07:28.569Z,16.17
2022-08-28T09:10:20.311Z,13.23
2022-08-28T09:13:15.973Z,16.23
2022-08-28T09:15:50.808Z,10.02
2022-08-28T09:18:35.330Z,15.55
2022-08-28T09:21:08.557Z,15.27
2022-08-28T09:23:57.405Z,10.48
2022-08-28T09:26:29.457Z,13.13
2022-08-28T09:29:23.998Z,12.98
2022-08-28T09:32:21.459Z,11.85
2022-08-28T09:35:23.734Z,9.80
2022-08-28T09:37:52.418Z,18.55
2022-08-28T09:40:53.894Z,10.65
2022-08-28T09:43:25.937Z,13.93
2022-08-28T09:46:21.147Z,10.80
2022-08-28T09:48:51.728Z,12.45
2022-08-28T09:51:21.524Z,10.32
2022-08-28T09:53:51.482Z,11.32
2022-08-28T09:56:33.327Z,8.93
2022-08-28T09:59:14.772Z,12.48
2022-08-28T10:02:17.437Z,14.13
2022-08-28T10:07:32.329Z,12.40
2022-08-28T10:10:02.300Z,16.02
2022-08-28T10:13:22.223Z,9.55
2022-08-28T10:16:11.478Z,9.30
2022-08-28T10:18:56.341Z,8.45
2022-08-28T10:21:35.184Z,13.07
2022-08-28T10:24:34.306Z,16.33
2022-08-28T10:27:50.514Z,13.63
2022-08-28T10:34:02.498Z,9.07
2022-08-28T10:36:34.808Z,10.52
2022-08-28T10:39:24.437Z,14.50
2022-08-28T10:48:39.098Z,11.45
2022-08-28T10:57:59.338Z,10.23
2022-08-28T11:00:55.624Z,11.57
2022-08-28T11:06:22.664Z,9.23
2022-08-28T11:09:38.117Z,8.20
2022-08-28T11:12:08.871Z,7.28
2022-08-28T11:14:48.436Z,6.82
2022-08-28T11:21:20.833Z,6.35
2022-08-28T11:24:20.652Z,13.57
2022-08-28T11:27:06.787Z,9.35
2022-08-28T11:29:55.730Z,7.30
2022-08-28T11:42:09.388Z,7.13
2022-08-28T11:45:02.634Z,9.48
2022-08-28T11:47:44.646Z,8.02
2022-08-28T11:50:19.911Z,9.95
2022-08-28T11:56:46.253Z,8.35
2022-08-28T12:02:47.081Z,6.00
2022-08-28T12:05:33.053Z,9.23
2022-08-28T12:11:44.562Z,8.02
2022-08-28T12:14:29.324Z,7.13
2022-08-28T12:16:59.263Z,12.23
2022-08-28T12:19:36.511Z,8.05
2022-08-28T12:22:59.610Z,7.20
2022-08-28T12:25:39.791Z,9.63
2022-08-28T12:35:20.352Z,7.68
2022-08-28T12:37:55.136Z,6.77
2022-08-28T12:40:30.666Z,7.50
2022-08-28T12:42:59.446Z,7.28
2022-08-28T12:48:59.675Z,6.20
2022-08-28T12:51:30.695Z,7.95
2022-08-28T12:57:34.052Z,8.38
2022-08-28T13:03:26.526Z,6.93
2022-08-28T13:06:12.800Z,8.38
2022-08-28T13:11:51.897Z,8.50
2022-08-28T13:20:40.826Z,8.23
2022-08-28T13:23:29.294Z,8.30
2022-08-28T13:26:32.204Z,8.05
2022-08-28T13:32:00.684Z,7.75
2022-08-28T13:37:42.790Z,6.07
2022-08-28T13:40:38.038Z,10.68
2022-08-28T13:46:10.868Z,5.72
2022-08-28T13:58:01.254Z,7.03
2022-08-28T14:00:40.216Z,7.53
2022-08-28T14:03:36.160Z,7.32
2022-08-28T14:06:13.430Z,8.82
2022-08-28T14:08:42.964Z,8.73
2022-08-28T14:11:13.225Z,8.55
2022-08-28T14:13:47.186Z,8.15
2022-08-28T14:22:54.875Z,8.63
2022-08-28T14:25:21.459Z,7.97
2022-08-28T14:27:51.053Z,7.50
2022-08-28T14:30:19.968Z,7.70
2022-08-28T14:32:49.674Z,7.22
2022-08-28T14:35:20.821Z,6.18
2022-08-28T14:46:32.613Z,7.88
2022-08-28T14:55:26.923Z,8.05
2022-08-28T14:57:57.524Z,7.60
2022-08-28T15:00:34.464Z,6.20
2022-08-28T15:06:19.762Z,9.02
2022-08-28T15:08:46.925Z,7.15
2022-08-28T15:11:20.841Z,6.90
2022-08-28T15:14:00.285Z,5.63
2022-08-28T15:16:56.262Z,6.15
2022-08-28T15:25:34.916Z,8.57
2022-08-28T15:28:03.046Z,5.80
2022-08-28T15:30:30.636Z,5.60
2022-08-28T15:33:03.747Z,5.82
2022-08-28T15:35:39.832Z,6.47
2022-08-28T15:44:55.003Z,6.80
2022-08-28T15:48:19.031Z,6.25
2022-08-28T15:51:38.251Z,8.80
2022-08-28T15:54:35.338Z,4.67
2022-08-28T15:57:03.584Z,7.80
2022-08-28T15:59:38.069Z,4.78
2022-08-28T16:02:23.236Z,5.07
2022-08-28T16:04:53.925Z,7.18
2022-08-28T16:07:29.622Z,7.72
2022-08-28T16:10:57.023Z,8.02
2022-08-28T16:13:24.412Z,8.77
2022-08-28T16:15:52.989Z,9.63
2022-08-28T16:18:23.287Z,8.40
2022-08-28T16:21:51.988Z,6.55
2022-08-28T16:25:13.031Z,9.57
2022-08-28T16:27:40.958Z,9.98
2022-08-28T16:30:15.618Z,5.60
2022-08-28T16:34:02.359Z,8.20
2022-08-28T16:37:23.274Z,8.65
2022-08-28T16:39:56.104Z,5.68
2022-08-28T16:42:29.679Z,7.10
2022-08-28T16:45:04.796Z,8.02
2022-08-28T16:50:46.207Z,5.95
2022-08-28T16:56:20.417Z,6.18
2022-08-28T16:58:48.867Z,9.93
2022-08-28T17:02:01.136Z,7.68
2022-08-28T17:07:28.938Z,10.10
2022-08-28T17:10:01.006Z,7.93
2022-08-28T17:15:44.990Z,7.47
2022-08-28T17:24:12.306Z,8.93
2022-08-28T17:26:43.712Z,7.97
2022-08-28T17:31:47.840Z,7.15
2022-08-28T17:34:14.959Z,9.82
2022-08-28T17:36:52.853Z,6.78
2022-08-28T17:39:19.898Z,8.02
2022-08-28T17:41:46.552Z,8.05
2022-08-28T17:44:13.708Z,8.73
2022-08-28T17:46:40.426Z,7.03
2022-08-28T17:49:17.617Z,9.05
2022-08-28T17:51:46.894Z,7.95
2022-08-28T17:54:17.500Z,7.80
2022-08-28T17:56:51.519Z,12.20
2022-08-28T17:59:19.556Z,8.80
2022-08-28T18:01:47.040Z,8.13
2022-08-28T18:04:20.277Z,19.08
2022-08-28T18:06:59.818Z,14.90
2022-08-28T18:09:36.768Z,12.95
2022-08-28T18:12:06.488Z,22.50
2022-08-28T18:14:41.809Z,35.17
2022-08-28T18:17:15.777Z,76.38
2022-08-28T18:20:01.207Z,85.68
2022-08-28T18:22:31.946Z,58.03
2022-08-28T18:25:04.028Z,34.13
2022-08-28T18:27:30.932Z,14.15
2022-08-28T18:30:00.185Z,11.05
2022-08-28T18:32:27.427Z,18.83
2022-08-28T18:34:54.237Z,14.60
2022-08-28T18:37:21.082Z,12.48
2022-08-28T18:39:58.917Z,11.52
2022-08-28T18:42:33.096Z,10.82
2022-08-28T18:45:01.530Z,14.32
2022-08-28T18:47:29.386Z,9.55
2022-08-28T18:49:58.947Z,7.63
2022-08-28T18:52:25.909Z,8.27
2022-08-28T18:55:00.852Z,12.07
2022-08-28T18:57:59.420Z,9.38
2022-08-28T19:02:59.341Z,12.65
2022-08-28T19:05:28.843Z,8.45
2022-08-28T19:07:55.671Z,9.50
2022-08-28T19:10:33.295Z,8.00
2022-08-28T19:13:04.896Z,10.80
2022-08-28T19:15:33.014Z,10.82
2022-08-28T19:18:06.833Z,8.88
2022-08-28T19:20:34.337Z,14.18
2022-08-28T19:23:07.977Z,9.95
2022-08-28T19:25:35.835Z,19.90
2022-08-28T19:28:03.235Z,9.73
2022-08-28T19:30:34.845Z,7.55
2022-08-28T19:33:11.773Z,9.45
2022-08-28T19:35:44.881Z,12.07
2022-08-28T19:38:11.581Z,7.85
2022-08-28T19:40:39.097Z,9.80
2022-08-28T19:43:16.798Z,12.77
2022-08-28T19:45:51.277Z,9.57
2022-08-28T19:48:20.151Z,10.80
2022-08-28T19:50:48.073Z,13.32
2022-08-28T19:53:16.964Z,10.23
2022-08-28T19:55:43.863Z,9.23
2022-08-28T19:58:11.132Z,10.18
2022-08-28T20:00:39.940Z,15.57
2022-08-28T20:03:07.085Z,9.93
2022-08-28T20:05:34.196Z,12.15
2022-08-28T20:08:07.997Z,11.23
2022-08-28T20:10:40.743Z,14.50
2022-08-28T20:13:24.218Z,10.65
2022-08-28T20:15:54.059Z,9.05
2022-08-28T20:18:23.809Z,11.88
2022-08-28T20:20:50.985Z,9.65
2022-08-28T20:23:20.425Z,9.77
2022-08-28T20:28:23.865Z,10.85
2022-08-28T20:30:58.295Z,13.90
2022-08-28T20:33:24.962Z,8.93
2022-08-28T20:36:05.884Z,13.65
2022-08-28T20:38:33.757Z,11.20
2022-08-28T20:41:09.130Z,9.30
2022-08-28T20:43:36.990Z,10.98
2022-08-28T20:46:04.596Z,11.20
2022-08-28T20:48:34.491Z,10.77
2022-08-28T20:51:02.240Z,13.00
2022-08-28T20:53:37.107Z,10.70
2022-08-28T20:56:09.447Z,15.20
2022-08-28T20:58:36.582Z,14.25
2022-08-28T21:01:04.865Z,10.02
2022-08-28T21:03:31.823Z,11.55
2022-08-28T21:05:58.602Z,14.73
2022-08-28T21:08:27.824Z,12.13
2022-08-28T21:10:54.874Z,17.27
2022-08-28T21:13:21.490Z,9.10
2022-08-28T21:15:48.231Z,12.63
2022-08-28T21:18:15.327Z,10.45
2022-08-28T21:20:42.174Z,10.73
2022-08-28T21:23:10.072Z,11.90
2022-08-28T21:25:39.779Z,13.90
2022-08-28T21:28:08.989Z,13.60
2022-08-28T21:30:36.748Z,10.90
2022-08-28T21:33:04.506Z,10.18
2022-08-28T21:35:31.499Z,11.70
2022-08-28T21:37:58.304Z,15.32
2022-08-28T21:40:25.841Z,10.20
2022-08-28T21:42:52.536Z,11.40
2022-08-28T21:45:19.520Z,9.63
2022-08-28T21:47:46.631Z,9.77
2022-08-28T21:50:13.732Z,9.75
2022-08-28T21:52:42.891Z,14.73
2022-08-28T21:55:12.821Z,9.77
2022-08-28T21:57:42.089Z,17.27
2022-08-28T22:00:15.726Z,11.60
2022-08-28T22:02:42.810Z,10.80
2022-08-28T22:05:12.036Z,10.38
2022-08-28T22:07:39.665Z,10.23
2022-08-28T22:10:07.768Z,12.07
2022-08-28T22:12:34.948Z,17.38
2022-08-28T22:15:04.666Z,8.60
2022-08-28T22:17:31.602Z,9.27
2022-08-28T22:20:00.531Z,14.00
2022-08-28T22:22:48.696Z,10.98
2022-08-28T22:25:15.428Z,11.07
2022-08-28T22:27:46.521Z,11.35
2022-08-28T22:30:13.578Z,15.75
2022-08-28T22:32:40.221Z,10.95
2022-08-28T22:35:07.807Z,10.88
2022-08-28T22:37:35.300Z,8.05
2022-08-28T22:40:03.225Z,13.05
2022-08-28T22:42:36.154Z,14.68
2022-08-28T22:45:06.173Z,12.68
2022-08-28T22:47:35.597Z,8.80
2022-08-28T22:50:03.856Z,9.95
2022-08-28T22:52:31.057Z,10.85
2022-08-28T22:55:08.171Z,10.15
2022-08-28T22:57:38.041Z,11.15
2022-08-28T23:00:09.126Z,11.32
2022-08-28T23:02:36.237Z,14.75
2022-08-28T23:05:07.816Z,8.35
2022-08-28T23:07:36.575Z,14.93
2022-08-28T23:10:06.975Z,9.40
2022-08-28T23:12:34.930Z,11.27
2022-08-28T23:15:03.943Z,11.82
2022-08-28T23:17:32.318Z,11.18
2022-08-28T23:20:00.083Z,11.18
2022-08-28T23:22:27.069Z,10.40
2022-08-28T23:24:53.712Z,10.77
2022-08-28T23:27:35.742Z,11.38
2022-08-28T23:30:05.145Z,10.13
2022-08-28T23:32:40.716Z,11.32
2022-08-28T23:35:08.837Z,10.40
2022-08-28T23:37:37.748Z,9.18
2022-08-28T23:40:11.244Z,9.77
2022-08-28T23:42:39.320Z,13.13
2022-08-28T23:45:10.001Z,14.43
2022-08-28T23:47:40.201Z,10.13
2022-08-28T23:50:20.792Z,11.90
2022-08-28T23:52:48.522Z,11.73
2022-08-28T23:55:18.631Z,10.38
2022-08-28T23:57:52.257Z,9.57
